Tiempo atmosférico en la estación meteorológica de Amieva, Panizales, Asturias (360 m.)



Fecha
DESCASC
Temp. máxima en grados centígrados (hora)
DESCASC
Temp. mínima en grados centígrados (hora)
DESCASC
Temp. media en grados centígrados
DESCASC
Racha de viento máxima en m/sg (hora)
DESCASC
Velocidad máxima media en intervalos de 10 minutos(hora)
DESCASC
Precipitaciones diarias en mm
DESCASC
Precipitaciones de 00:00 a 06:00 en mm
DESCASC
Precipitaciones de 06:00 a 12:00 en mm
DESCASC
Precipitaciones de 12:00 a 18:00 en mm
DESCASC
Precipitaciones de 18:00 a 24:00 en mm
DESCASC
06-07-2020 18.2 (15:40) 14.7 (23:20) 16.5 5.83 (12:30) 3.06 (12:30) 0.2 0 0.2 0 0
05-07-2020 26.1 (15:00) 13.4 (06:20) 19.8 6.67 (16:50) 3.33 (16:00) 0 0 0 0 0
04-07-2020 26.5 (16:10) 8.9 (06:50) 17.7 6.94 (14:50) 3.06 (14:00) 0 0 0 0 0
03-07-2020 21 (14:20) 11.8 (05:10) 16.4 6.39 (14:50) 2.78 (14:10) 0.2 0.2 0 0 0
02-07-2020 16.4 (14:00) 12 (00:00) 14.2 3.89 (15:00) 1.67 (11:10) 4.8 1.4 0.6 1 1.8
01-07-2020 21.7 (12:30) 14.4 (00:00) 18.1 6.39 (15:20) 2.78 (15:10) 0.4 0 0 0.2 0.2
30-06-2020 26.7 (15:40) 10.8 (00:00) 18.8 6.67 (15:50) 3.33 (14:50) 2.2 0 0 0 2.2
29-06-2020 20.1 (17:30) 14.2 (00:00) 17.2 5.83 (14:10) 3.33 (15:40) 0.4 0.4 0 0 0
28-06-2020 26 (14:40) 14.4 (00:00) 20.2 8.61 (14:50) 3.06 (14:50) 1.6 0.4 0.2 0 1
27-06-2020 25.6 (16:40) 14.4 (00:00) 20 6.67 (18:00) 3.61 (16:10) 0.2 0 0 0.2 0
26-06-2020 22.5 (17:30) 14.2 (00:00) 18.3 5.28 (17:10) 2.78 (17:10) 0.4 0.2 0.2 0 0
25-06-2020 24.5 (00:40) 14.1 (00:00) 19.3 10.83 (00:40) 4.72 (00:40) 4.8 0 0 0.4 4.4
24-06-2020 28 (16:10) 14.2 (00:00) 21.1 8.06 (23:59) 3.89 (23:50) 0 0 0 0 0
23-06-2020 32.1 (16:20) 12.7 (00:00) 22.4 5.83 (16:30) 2.78 (16:30) 0 0 0 0 0
22-06-2020 27 (15:20) 11.8 (00:00) 19.4 7.78 (17:20) 3.33 (17:20) 0 0 0 0 0
21-06-2020 24.9 (14:30) 12.2 (00:00) 18.5 6.11 (15:00) 3.06 (13:30) 0 0 0 0 0
20-06-2020 22.7 (13:50) 10.7 (00:00) 16.7 10.28 (14:20) 2.78 (13:00) 0 0 0 0 0
19-06-2020 20.1 (18:40) 11.1 (00:00) 15.6 5.83 (18:20) 3.33 (18:40) 0 0 0 0 0
18-06-2020 19.5 (14:30) 11.2 (00:00) 15.3 6.94 (15:10) 3.61 (13:30) 0.6 0.6 0 0 0
17-06-2020 19.9 (16:30) 11.4 (00:00) 15.6 6.11 (16:40) 2.5 (16:20) 6.4 0.2 1.4 0.4 4.4
16-06-2020 17 (16:10) 11.5 (00:00) 14.3 5.56 (13:10) 2.5 (13:20) 5.8 1.4 0.8 1.6 2
15-06-2020 21.1 (14:20) 11.1 (00:00) 16.1 6.67 (13:50) 3.33 (13:50) 6.4 0.2 0 5.8 0.4
14-06-2020 20.5 (13:40) 9.4 (00:00) 14.9 5.83 (13:10) 2.5 (13:10) 3.4 0 0 1 2.4
13-06-2020 19.6 (13:50) 11 (00:00) 15.3 5 (09:30) 2.22 (12:50) 1.8 0.2 0 1 0.6
12-06-2020 18.1 (17:30) 10.2 (00:00) 14.2 13.33 (01:20) 5.28 (01:20) 3.6 0.6 0.2 2.6 0.2
11-06-2020 16.3 (11:00) 9.9 (00:00) 13.1 10.56 (22:30) 5 (22:50) 8.8 0 3.2 5 0.6
10-06-2020 18.7 (14:20) 8.4 (00:00) 13.6 5.83 (15:50) 2.78 (12:10) 0 0 0 0 0
09-06-2020 17.4 (13:50) 9.9 (00:00) 13.6 6.39 (14:50) 2.5 (14:30) 0 0 0 0 0
08-06-2020 15.1 (15:20) 8.2 (05:20) 11.7 5.28 (17:30) 1.94 (16:10) 3.4 0 2 0.6 0.8
07-06-2020 14.9 (17:00) 8.4 (00:00) 11.6 5.28 (17:10) 2.5 (17:00) 4.4 3.6 0.6 0 0.2

Gráficas

Temp. máximas Temp. mínimas Temp. medias Precipitaciones Rachas de viento máximas Velocidades máximas media en intervalos de 10 minutos

Datos horarios

Fecha y hora oficial Temperatura (ºC) Velocidad del viento (km/h) Dirección del viento Racha (km/h) Dirección de racha Precipitación (mm) Presión (hPa) Tendencia (hPa) Humedad (%)
2020-07-06 23:00:00 14.8 0 Calma 8 Oeste 0 -- -- 98
2020-07-06 22:00:00 15 6 Oeste 13 Oeste 0 -- -- 97
2020-07-06 21:00:00 15.6 5 Noroeste 15 Oeste 0 -- -- 95
2020-07-06 20:00:00 16.6 3 Sudoeste 13 Oeste 0 -- -- 91
2020-07-06 19:00:00 16.7 7 Oeste 16 Oeste 0 -- -- 91
2020-07-06 18:00:00 17.1 6 Oeste 18 Oeste 0 -- -- 90
2020-07-06 17:00:00 17.2 8 Oeste 18 Oeste 0 -- -- 90
2020-07-06 16:00:00 17.8 6 Oeste 19 Sudoeste 0 -- -- 88
2020-07-06 15:00:00 17.9 7 Oeste 18 Oeste 0 -- -- 92
2020-07-06 14:00:00 17.5 5 Oeste 19 Oeste 0 -- -- 96
2020-07-06 13:00:00 17.5 6 Sudoeste 21 Oeste 0 -- -- 93
2020-07-06 12:00:00 17.3 7 Oeste 21 Sudoeste 0 -- -- 95
2020-07-06 11:00:00 17.6 6 Oeste 15 Oeste 0.2 -- -- 97
2020-07-06 10:00:00 17.2 5 Sudoeste 13 Oeste 0 -- -- 99
2020-07-06 09:00:00 16.8 5 Sudoeste 9 Sudoeste 0 -- -- 100
2020-07-06 08:00:00 16.5 3 Sudoeste 5 Sudoeste 0 -- -- 100
2020-07-06 07:00:00 16.5 0 Calma 6 Noroeste 0 -- -- 99
2020-07-06 06:00:00 16.6 0 Calma 6 Noroeste 0 -- -- 97
2020-07-06 05:00:00 16.6 0 Calma 8 Oeste 0 -- -- 97
2020-07-06 04:00:00 16.6 2 Oeste 5 Oeste 0 -- -- 97
2020-07-06 03:00:00 16.6 0 Calma 3 Oeste 0 -- -- 95
2020-07-06 02:00:00 17.1 0 Calma 0 Calma 0 -- -- 94
2020-07-06 01:00:00 17.3 0 Calma 4 Oeste 0 -- -- 93
2020-07-06 00:00:00 17.6 0 Calma 5 Oeste 0 -- -- 91
2020-07-05 23:00:00 17.9 0 Calma 10 Oeste 0 -- -- 89
2020-07-05 22:00:00 19.2 3 Oeste 9 Sudoeste 0 -- -- 85
2020-07-05 21:00:00 21.6 4 Sudoeste 15 Sudoeste 0 -- -- 79
2020-07-05 20:00:00 23 6 Oeste 22 Oeste 0 -- -- 75
2020-07-05 19:00:00 24.4 8 Sudoeste 21 Oeste 0 -- -- 71
2020-07-05 18:00:00 24.9 7 Oeste 22 Oeste 0 -- -- 70
2020-07-05 17:00:00 25.2 11 Oeste 24 Oeste 0 -- -- 70
2020-07-05 16:00:00 25.4 12 Oeste 23 Oeste 0 -- -- 69
2020-07-05 15:00:00 26.1 8 Sudoeste 20 Oeste 0 -- -- 75
2020-07-05 14:00:00 24.9 8 Oeste 21 Sudoeste 0 -- -- 70
2020-07-05 13:00:00 25.4 8 Sudoeste 15 Sudoeste 0 -- -- 69
2020-07-05 12:00:00 23.3 5 Sur 10 Sudoeste 0 -- -- 76
2020-07-05 11:00:00 20.8 4 Sudoeste 9 Oeste 0 -- -- 81
2020-07-05 10:00:00 18.6 2 Sudoeste 4 Sur 0 -- -- 90
2020-07-05 09:00:00 14.7 0 Calma 3 Noroeste 0 -- -- 100
2020-07-05 08:00:00 13.7 0 Calma 3 Norte 0 -- -- 100
2020-07-05 07:00:00 13.5 0 Calma 4 Nordeste 0 -- -- 100
2020-07-05 06:00:00 13.6 0 Calma 4 Norte 0 -- -- 100
2020-07-05 05:00:00 13.6 0 Calma 3 Nordeste 0 -- -- 100
2020-07-05 04:00:00 14.2 0 Calma 5 Nordeste 0 -- -- 100
2020-07-05 03:00:00 14.2 2 Nordeste 4 Nordeste 0 -- -- 99
2020-07-05 02:00:00 14.3 0 Calma 3 Nordeste 0 -- -- 98
2020-07-05 01:00:00 14.5 0 Calma 4 Nordeste 0 -- -- 97
2020-07-05 00:00:00 15 0 Calma 3 Nordeste 0 -- -- 96
2020-07-04 23:00:00 15.8 0 Calma 5 Nordeste 0 -- -- 94
2020-07-04 22:00:00 17.5 0 Calma 9 Oeste 0 -- -- 90
2020-07-04 21:00:00 21 5 Oeste 16 Oeste 0 -- -- 73
2020-07-04 20:00:00 23.9 9 Oeste 19 Oeste 0 -- -- 65
2020-07-04 19:00:00 25.3 7 Sudoeste 17 Sudoeste 0 -- -- 64
2020-07-04 18:00:00 25.7 8 Oeste 22 Oeste 0 -- -- 61
2020-07-04 17:00:00 26.3 6 Oeste 24 Oeste 0 -- -- 60
2020-07-04 16:00:00 26.4 8 Oeste 22 Noroeste 0 -- -- 68
2020-07-04 15:00:00 25.9 8 Oeste 25 Oeste 0 -- -- 59
2020-07-04 14:00:00 24.5 11 Sudoeste 21 Sudoeste 0 -- -- 64
2020-07-04 13:00:00 23.3 8 Sudoeste 16 Sudoeste 0 -- -- 66
2020-07-04 12:00:00 20.7 5 Sur 12 Oeste 0 -- -- 67
2020-07-04 11:00:00 17.7 3 Sudoeste 5 Sur 0 -- -- 62
2020-07-04 10:00:00 14.3 0 Calma 5 Sudeste 0 -- -- 74
2020-07-04 09:00:00 9.5 0 Calma 5 Nordeste 0 -- -- 99
2020-07-04 08:00:00 9.3 3 Noroeste 5 Norte 0 -- -- 100
2020-07-04 07:00:00 8.9 0 Calma 4 Nordeste 0 -- -- 100
2020-07-04 06:00:00 9.8 0 Calma 7 Este 0 -- -- 100
2020-07-04 05:00:00 10 0 Calma 4 Nordeste 0 -- -- 100
2020-07-04 04:00:00 10.7 0 Calma 4 Noroeste 0 -- -- 100
2020-07-04 03:00:00 11.3 0 Calma 4 Norte 0 -- -- 99
2020-07-04 02:00:00 12.6 2 Norte 5 Nordeste 0 -- -- 97
2020-07-04 01:00:00 15 0 Calma 3 Nordeste 0 -- -- 96
2020-07-04 00:00:00 15.3 0 Calma 4 Oeste 0 -- -- 94
2020-07-03 23:00:00 15.5 0 Calma 3 Este 0 -- -- 94
2020-07-03 22:00:00 16 0 Calma 3 Sur 0 -- -- 91
2020-07-03 21:00:00 16.6 0 Calma 13 Noroeste 0 -- -- 89
2020-07-03 20:00:00 17 4 Noroeste 14 Sudoeste 0 -- -- 84
2020-07-03 19:00:00 17.5 4 Noroeste 19 Noroeste 0 -- -- 83
2020-07-03 18:00:00 20 8 Oeste 20 Oeste 0 -- -- 74
2020-07-03 17:00:00 19.3 7 Nordeste 18 Norte 0 -- -- 76
2020-07-03 16:00:00 19.4 6 Norte 19 Oeste 0 -- -- 73
2020-07-03 15:00:00 19.9 7 Oeste 23 Sudoeste 0 -- -- 72
2020-07-03 14:00:00 20.3 8 Oeste 21 Oeste 0 -- -- 71
2020-07-03 13:00:00 17.6 5 Sudoeste 13 Oeste 0 -- -- 78
2020-07-03 12:00:00 16.2 3 Sur 7 Sudoeste 0 -- -- 89
2020-07-03 11:00:00 15 2 Sudoeste 5 Sudoeste 0 -- -- 92
2020-07-03 10:00:00 14 2 Sur 7 Oeste 0 -- -- 97
2020-07-03 09:00:00 12.8 0 Calma 2 Nordeste 0 -- -- 100
2020-07-03 08:00:00 12.1 0 Calma 2 Oeste 0 -- -- 100
2020-07-03 07:00:00 11.9 0 Calma 2 Nordeste 0 -- -- 100
2020-07-03 06:00:00 11.9 0 Calma 3 Norte 0 -- -- 100
2020-07-03 05:00:00 11.9 0 Calma 2 Noroeste 0 -- -- 100
2020-07-03 04:00:00 11.9 0 Calma 3 Noroeste 0 -- -- 100
2020-07-03 03:00:00 12 0 Calma 4 Este 0 -- -- 100
2020-07-03 02:00:00 12 2 Nordeste 3 Nordeste 0 -- -- 100
2020-07-03 01:00:00 11.9 0 Calma 3 Nordeste 0.2 -- -- 100
2020-07-03 00:00:00 12 3 Norte 5 Nordeste 0 -- -- 99
2020-07-02 23:00:00 12.5 0 Calma 6 Oeste 1.2 -- -- 99
2020-07-02 22:00:00 12.8 2 Norte 4 Este 0 -- -- 98
2020-07-02 21:00:00 13.2 3 Este 5 Oeste 0 -- -- 99
2020-07-02 20:00:00 13.5 4 Sudoeste 8 Sudoeste 0.4 -- -- 99
2020-07-02 19:00:00 14 3 Sudoeste 10 Oeste 0.2 -- -- 97
2020-07-02 18:00:00 14.3 2 Sudoeste 5 Sur 0 -- -- 98
2020-07-02 17:00:00 14 2 Sudoeste 8 Sudoeste 0 -- -- 99
2020-07-02 16:00:00 14 5 Sudoeste 10 Oeste 0.8 -- -- 98
2020-07-02 15:00:00 14.9 5 Noroeste 14 Noroeste 0.2 -- -- 90
2020-07-02 14:00:00 16.4 3 Sur 7 Sur 0 -- -- 86
2020-07-02 13:00:00 15 4 Sur 7 Sudeste 0 -- -- 96
2020-07-02 12:00:00 14.3 2 Sudoeste 12 Oeste 0 -- -- 97
2020-07-02 11:00:00 14.4 5 Oeste 10 Sudoeste 0.2 -- -- 99
2020-07-02 10:00:00 13.5 3 Sudoeste 10 Sudoeste 0.2 -- -- 100
2020-07-02 09:00:00 13.5 2 Oeste 4 Oeste 0 -- -- 100
2020-07-02 08:00:00 13.4 0 Calma 3 Oeste 0 -- -- 100
2020-07-02 07:00:00 13.4 0 Calma 2 Sudeste 0.2 -- -- 100
2020-07-02 06:00:00 13.5 0 Calma 3 Oeste 0 -- -- 100
2020-07-02 05:00:00 13.6 0 Calma 4 Oeste 0.4 -- -- 100
2020-07-02 04:00:00 13.9 0 Calma 4 Oeste 0.4 -- -- 100
2020-07-02 03:00:00 13.9 2 Oeste 4 Oeste 0.2 -- -- 100
2020-07-02 02:00:00 14.1 2 Sudoeste 4 Oeste 0.2 -- -- 100
2020-07-02 01:00:00 14.2 0 Calma 8 Oeste 0.2 -- -- 100
2020-07-02 00:00:00 14.4 3 Noroeste 7 Oeste 0.2 -- -- 100
2020-07-01 23:00:00 14.7 3 Oeste 10 Oeste 0 -- -- 100
2020-07-01 22:00:00 15.1 5 Oeste 10 Oeste 0 -- -- 100
2020-07-01 21:00:00 15.5 4 Oeste 14 Oeste 0 -- -- 99
2020-07-01 20:00:00 16 5 Oeste 10 Oeste 0 -- -- 99
2020-07-01 19:00:00 16.2 7 Oeste 18 Oeste 0 -- -- 98
2020-07-01 18:00:00 16.9 7 Oeste 16 Oeste 0.2 -- -- 99
2020-07-01 17:00:00 16.8 6 Oeste 16 Oeste 0 -- -- 98
2020-07-01 16:00:00 17.1 8 Oeste 23 Noroeste 0 -- -- 95
2020-07-01 15:00:00 18.1 8 Noroeste 22 Noroeste 0 -- -- 92
2020-07-01 14:00:00 20.1 9 Noroeste 19 Noroeste 0 -- -- 84
2020-07-01 13:00:00 21.5 6 Sudoeste 17 Oeste 0 -- -- 83
2020-07-01 12:00:00 20.8 6 Oeste 16 Oeste 0 -- -- 85
2020-07-01 11:00:00 19.9 6 Sudoeste 10 Sur 0 -- -- 92
2020-07-01 10:00:00 18.5 4 Oeste 7 Oeste 0 -- -- 95
2020-07-01 09:00:00 17.6 2 Oeste 5 Oeste 0 -- -- 99
2020-07-01 08:00:00 17.7 2 Noroeste 4 Noroeste 0 -- -- 99
2020-07-01 07:00:00 17.6 0 Calma 4 Oeste 0 -- -- 99
2020-07-01 06:00:00 17.6 0 Calma 4 Norte 0 -- -- 99
2020-07-01 05:00:00 17.6 0 Calma 4 Oeste 0 -- -- 99
2020-07-01 04:00:00 17.6 0 Calma 4 Sudeste 0 -- -- 99
2020-07-01 03:00:00 17.7 0 Calma 2 Nordeste 0 -- -- 99
2020-07-01 02:00:00 17.8 0 Calma 2 Nordeste 0 -- -- 98
2020-07-01 01:00:00 17.8 0 Calma 3 Norte 0 -- -- 98
2020-07-01 00:00:00 17.8 0 Calma 7 Noroeste 0 -- -- 98
2020-06-30 23:00:00 17.9 4 Nordeste 12 Norte 0 -- -- 97
2020-06-30 22:00:00 18.3 2 Este 8 Nordeste 0 -- -- 96
2020-06-30 21:00:00 18.6 3 Noroeste 10 Norte 0.6 -- -- 94
2020-06-30 20:00:00 19 4 Norte 9 Este 0 -- -- 92
2020-06-30 19:00:00 19.9 0 Calma 9 Noroeste 1.6 -- -- 89
2020-06-30 18:00:00 22.3 5 Oeste 22 Oeste 0 -- -- 75
2020-06-30 17:00:00 25.8 9 Sudoeste 22 Oeste 0 -- -- 70
2020-06-30 16:00:00 26.4 8 Noroeste 24 Sudoeste 0 -- -- 68
2020-06-30 15:00:00 25.9 11 Sudoeste 22 Sudoeste 0 -- -- 67
2020-06-30 14:00:00 25.3 8 Sudoeste 18 Oeste 0 -- -- 62
2020-06-30 13:00:00 23.3 5 Sur 14 Sur 0 -- -- 66
2020-06-30 12:00:00 21.1 4 Oeste 10 Oeste 0 -- -- 71
2020-06-30 11:00:00 19.4 3 Oeste 8 Oeste 0 -- -- 78
2020-06-30 10:00:00 16.4 0 Calma 4 Sudoeste 0 -- -- 88
2020-06-30 09:00:00 13.3 0 Calma 5 Nordeste 0 -- -- 97
2020-06-30 08:00:00 11.3 0 Calma 4 Oeste 0 -- -- 100
2020-06-30 07:00:00 10.8 0 Calma 4 Norte 0 -- -- 100
2020-06-30 06:00:00 11 0 Calma 4 Norte 0 -- -- 100
2020-06-30 05:00:00 11.6 0 Calma 3 Oeste 0 -- -- 100
2020-06-30 04:00:00 11.8 0 Calma 5 Nordeste 0 -- -- 100
2020-06-30 03:00:00 12 0 Calma 4 Nordeste 0 -- -- 100
2020-06-30 02:00:00 12.5 0 Calma 4 Norte 0 -- -- 100
2020-06-30 01:00:00 13.3 0 Calma 6 Nordeste 0 -- -- 98
2020-06-30 00:00:00 14.2 2 Nordeste 4 Nordeste 0 -- -- 98
2020-06-29 23:00:00 16.4 0 Calma 4 Oeste 0 -- -- 95
2020-06-29 22:00:00 17.1 0 Calma 6 Sudoeste 0 -- -- 93
2020-06-29 21:00:00 18.1 0 Calma 7 Sudoeste 0 -- -- 89
2020-06-29 20:00:00 18.8 2 Sudoeste 10 Oeste 0 -- -- 88
2020-06-29 19:00:00 19.2 4 Sudoeste 13 Sudoeste 0 -- -- 87
2020-06-29 18:00:00 19.7 6 Sudoeste 16 Sudoeste 0 -- -- 87
2020-06-29 17:00:00 19.5 8 Sudoeste 18 Oeste 0 -- -- 86
2020-06-29 16:00:00 19.1 6 Oeste 21 Sudoeste 0 -- -- 85
2020-06-29 15:00:00 19.2 9 Sudoeste 21 Oeste 0 -- -- 87
2020-06-29 14:00:00 19.1 9 Oeste 18 Oeste 0 -- -- 85
2020-06-29 13:00:00 18.9 8 Oeste 18 Sudoeste 0 -- -- 89
2020-06-29 12:00:00 18 7 Sudoeste 15 Oeste 0 -- -- 93
2020-06-29 11:00:00 17 7 Sudoeste 14 Oeste 0 -- -- 96
2020-06-29 10:00:00 15.7 3 Sudoeste 8 Sudoeste 0 -- -- 100
2020-06-29 09:00:00 14.9 2 Sudoeste 6 Oeste 0 -- -- 100
2020-06-29 08:00:00 14.6 2 Sudoeste 5 Oeste 0 -- -- 100
2020-06-29 07:00:00 14.6 0 Calma 4 Oeste 0 -- -- 100
2020-06-29 06:00:00 14.6 0 Calma 4 Oeste 0.2 -- -- 100
2020-06-29 05:00:00 14.6 0 Calma 6 Oeste 0 -- -- 100
2020-06-29 04:00:00 14.8 0 Calma 10 Sudoeste 0.2 -- -- 100
2020-06-29 03:00:00 15.4 3 Oeste 9 Oeste 0 -- -- 100
2020-06-29 02:00:00 16 3 Oeste 8 Oeste 0 -- -- 99
2020-06-29 01:00:00 16.5 0 Calma 8 Sudoeste 0 -- -- 98
2020-06-29 00:00:00 16.9 2 Oeste 7 Oeste 0.2 -- -- 99
2020-06-28 23:00:00 17.3 0 Calma 4 Oeste 0.2 -- -- 97
2020-06-28 22:00:00 17.5 0 Calma 3 Sur 0.2 -- -- 96
2020-06-28 21:00:00 17.7 0 Calma 4 Oeste 0.4 -- -- 94
2020-06-28 20:00:00 18.3 0 Calma 4 Oeste 0 -- -- 91
2020-06-28 19:00:00 19 0 Calma 11 Oeste 0 -- -- 85
2020-06-28 18:00:00 19.9 3 Este 10 Sur 0 -- -- 81
2020-06-28 17:00:00 21 5 Noroeste 17 Oeste 0 -- -- 76
2020-06-28 16:00:00 23.4 7 Noroeste 22 Sudoeste 0 -- -- 71
2020-06-28 15:00:00 25.2 8 Noroeste 31 Sudoeste 0 -- -- 68
2020-06-28 14:00:00 25.1 7 Este 18 Oeste 0 -- -- 65
2020-06-28 13:00:00 24.2 7 Oeste 19 Sudoeste 0 -- -- 64
2020-06-28 12:00:00 22.4 4 Sur 8 Sudoeste 0 -- -- 72
2020-06-28 11:00:00 19.5 0 Calma 6 Sur 0 -- -- 87
2020-06-28 10:00:00 17.4 0 Calma 6 Este 0.2 -- -- 96
2020-06-28 09:00:00 15.1 2 Nordeste 6 Norte 0 -- -- 100
2020-06-28 08:00:00 14.4 0 Calma 3 Este 0 -- -- 100
2020-06-28 07:00:00 14.4 0 Calma 6 Oeste 0 -- -- 100
2020-06-28 06:00:00 15.1 0 Calma 3 Este 0 -- -- 99
2020-06-28 05:00:00 15.2 0 Calma 3 Sur 0.2 -- -- 100
2020-06-28 04:00:00 15.2 0 Calma 5 Sudoeste 0 -- -- 99
2020-06-28 03:00:00 15.3 2 Oeste 4 Oeste 0 -- -- 99
2020-06-28 02:00:00 15.4 0 Calma 3 Sudoeste 0.2 -- -- 98
2020-06-28 01:00:00 15.6 2 Sudoeste 5 Oeste 0 -- -- 98
2020-06-28 00:00:00 16 0 Calma 8 Oeste 0 -- -- 96
2020-06-27 23:00:00 16.2 0 Calma 4 Oeste 0 -- -- 97
2020-06-27 22:00:00 16.6 2 Noroeste 10 Oeste 0 -- -- 95
2020-06-27 21:00:00 17.2 5 Noroeste 15 Noroeste 0 -- -- 92
2020-06-27 20:00:00 17.7 6 Noroeste 19 Sur 0 -- -- 89
2020-06-27 19:00:00 21.3 7 Sur 23 Oeste 0 -- -- 79
2020-06-27 18:00:00 24.1 11 Oeste 24 Oeste 0 -- -- 74
2020-06-27 17:00:00 25.6 8 Sudoeste 22 Sudoeste 0 -- -- 68
2020-06-27 16:00:00 23.5 10 Sudoeste 20 Sudoeste 0 -- -- 73
2020-06-27 15:00:00 21.2 4 Oeste 13 Oeste 0.2 -- -- 77
2020-06-27 14:00:00 23.3 8 Noroeste 18 Sudoeste 0 -- -- 69
2020-06-27 13:00:00 24 7 Oeste 19 Oeste 0 -- -- 70
2020-06-27 12:00:00 22.5 6 Sudoeste 11 Oeste 0 -- -- 76
2020-06-27 11:00:00 20.1 3 Sur 8 Sudoeste 0 -- -- 86
2020-06-27 10:00:00 18.3 3 Sudoeste 8 Sudoeste 0 -- -- 89
2020-06-27 09:00:00 16.7 4 Sudeste 9 Norte 0 -- -- 92
2020-06-27 08:00:00 15.3 5 Norte 10 Noroeste 0 -- -- 98
2020-06-27 07:00:00 14.5 3 Sudeste 11 Sur 0 -- -- 100
2020-06-27 06:00:00 14.9 0 Calma 5 Oeste 0 -- -- 100
2020-06-27 05:00:00 14.8 0 Calma 8 Sudoeste 0 -- -- 99
2020-06-27 04:00:00 15.9 4 Oeste 8 Oeste 0 -- -- 100
2020-06-27 03:00:00 16.4 0 Calma 7 Sudoeste 0 -- -- 100
2020-06-27 02:00:00 16.1 0 Calma 2 Nordeste 0 -- -- 100
2020-06-27 01:00:00 15.4 2 Norte 3 Nordeste 0 -- -- 100
2020-06-27 00:00:00 16 0 Calma 5 Noroeste 0 -- -- 99
2020-06-26 23:00:00 16.6 0 Calma 4 Noroeste 0 -- -- 97
2020-06-26 22:00:00 17.6 2 Noroeste 4 Nordeste 0 -- -- 94
2020-06-26 21:00:00 21.2 2 Sur 14 Sudoeste 0 -- -- 83
2020-06-26 20:00:00 21.3 4 Sudoeste 17 Sudoeste 0 -- -- 80
2020-06-26 19:00:00 22.4 8 Sudoeste 17 Sudoeste 0 -- -- 77
2020-06-26 18:00:00 22 6 Sudoeste 19 Oeste 0 -- -- 81
2020-06-26 17:00:00 22.3 8 Sudoeste 18 Oeste 0 -- -- 80
2020-06-26 16:00:00 20 9 Sudoeste 17 Sudoeste 0 -- -- 82
2020-06-26 15:00:00 19 6 Sur 13 Sudoeste 0 -- -- 90
2020-06-26 14:00:00 16.4 5 Oeste 14 Oeste 0 -- -- 94
2020-06-26 13:00:00 16.4 6 Oeste 15 Oeste 0 -- -- 93
2020-06-26 12:00:00 16.6 6 Sudoeste 14 Oeste 0 -- -- 96
2020-06-26 11:00:00 15.6 5 Sur 10 Sudoeste 0 -- -- 100
2020-06-26 10:00:00 14.9 3 Sur 6 Oeste 0 -- -- 100
2020-06-26 09:00:00 14.5 0 Calma 5 Oeste 0 -- -- 100
2020-06-26 08:00:00 14.3 3 Oeste 7 Oeste 0 -- -- 100
2020-06-26 07:00:00 14.3 0 Calma 4 Sudoeste 0.2 -- -- 100
2020-06-26 06:00:00 14.4 0 Calma 8 Oeste 0 -- -- 100
2020-06-26 05:00:00 14.5 3 Oeste 6 Oeste 0 -- -- 100
2020-06-26 04:00:00 14.7 0 Calma 7 Oeste 0 -- -- 100
2020-06-26 03:00:00 15.1 3 Oeste 7 Sudoeste 0.2 -- -- 100
2020-06-26 02:00:00 15.3 3 Sudoeste 8 Nordeste 0 -- -- 100
2020-06-26 01:00:00 15.5 5 Noroeste 12 Noroeste 0 -- -- 98
2020-06-26 00:00:00 15.5 2 Sudoeste 10 Oeste 0.8 -- -- 99
2020-06-25 23:00:00 15.7 3 Sudeste 9 Este 2.2 -- -- 98
2020-06-25 22:00:00 16.4 3 Oeste 8 Sudoeste 0.6 -- -- 97
2020-06-25 21:00:00 16.8 4 Oeste 9 Sudoeste 0.6 -- -- 98
2020-06-25 20:00:00 16.1 3 Oeste 10 Oeste 0.2 -- -- 97
2020-06-25 19:00:00 16.5 4 Norte 13 Oeste 0 -- -- 96
2020-06-25 18:00:00 17.1 5 Sur 13 Sur 0.4 -- -- 96
2020-06-25 17:00:00 17.3 6 Oeste 18 Oeste 0 -- -- 92
2020-06-25 16:00:00 18.6 6 Noroeste 25 Noroeste 0 -- -- 87
2020-06-25 15:00:00 20.5 8 Noroeste 19 Oeste 0 -- -- 80
2020-06-25 14:00:00 21.4 6 Este 14 Este 0 -- -- 78
2020-06-25 13:00:00 20.9 4 Sudoeste 18 Oeste 0 -- -- 81
2020-06-25 12:00:00 21.6 8 Oeste 18 Sudoeste 0 -- -- 77
2020-06-25 11:00:00 19.2 5 Sudoeste 10 Oeste 0 -- -- 87
2020-06-25 10:00:00 16.8 3 Oeste 9 Este 0 -- -- 96
2020-06-25 09:00:00 15.7 0 Calma 12 Norte 0 -- -- 96
2020-06-25 08:00:00 15.1 0 Calma 4 Oeste 0 -- -- 99
2020-06-25 07:00:00 14.3 4 Norte 7 Norte 0 -- -- 100
2020-06-25 06:00:00 14.2 0 Calma 3 Oeste 0 -- -- 98
2020-06-25 05:00:00 14.7 0 Calma 9 Sur 0 -- -- 97
2020-06-25 04:00:00 15.2 2 Nordeste 6 Este 0 -- -- 94
2020-06-25 03:00:00 16.3 0 Calma 12 Oeste 0 -- -- 89
2020-06-25 02:00:00 18.6 3 Nordeste 15 Noroeste 0 -- -- 79
2020-06-25 01:00:00 23.5 7 Norte 39 Este 0 -- -- 58
2020-06-25 00:00:00 22.4 13 Este 29 Este 0 -- -- 65
2020-06-24 23:00:00 20.2 5 Sudeste 14 Este 0 -- -- 84
2020-06-24 22:00:00 21.1 4 Noroeste 11 Nordeste 0 -- -- 88
2020-06-24 21:00:00 21.5 4 Este 13 Sur 0 -- -- 91
2020-06-24 20:00:00 23 5 Norte 13 Oeste 0 -- -- 82
2020-06-24 19:00:00 22.8 7 Sur 15 Sudeste 0 -- -- 83
2020-06-24 18:00:00 22.7 6 Oeste 14 Oeste 0 -- -- 79
2020-06-24 17:00:00 26.7 5 Sudoeste 21 Sudoeste 0 -- -- 72
2020-06-24 16:00:00 27.8 9 Sur 18 Sudoeste 0 -- -- 71
2020-06-24 15:00:00 27.5 9 Sudoeste 19 Sudoeste 0 -- -- 71
2020-06-24 14:00:00 26.1 4 Sudoeste 14 Oeste 0 -- -- 74
2020-06-24 13:00:00 24.5 5 Oeste 11 Oeste 0 -- -- 78
2020-06-24 12:00:00 23.4 5 Sudoeste 12 Oeste 0 -- -- 82
2020-06-24 11:00:00 21.8 5 Sudoeste 7 Oeste 0 -- -- 84
2020-06-24 10:00:00 19.3 3 Sudeste 6 Sur 0 -- -- 85
2020-06-24 09:00:00 15.9 0 Calma 2 Nordeste 0 -- -- 99
2020-06-24 08:00:00 14.8 0 Calma 4 Nordeste 0 -- -- 99
2020-06-24 07:00:00 14.5 0 Calma 13 Nordeste 0 -- -- 94
2020-06-24 06:00:00 15.6 5 Norte 12 Nordeste 0 -- -- 90
2020-06-24 05:00:00 16.1 0 Calma 6 Nordeste 0 -- -- 90
2020-06-24 04:00:00 16.1 2 Nordeste 6 Nordeste 0 -- -- 90
2020-06-24 03:00:00 17.1 3 Norte 6 Nordeste 0 -- -- 88
2020-06-24 02:00:00 17.8 2 Noroeste 11 Norte 0 -- -- 87
2020-06-24 01:00:00 17.9 3 Oeste 6 Noroeste 0 -- -- 89
2020-06-24 00:00:00 17.9 0 Calma 5 Sudoeste 0 -- -- 93
2020-06-23 23:00:00 19.1 2 Nordeste 5 Nordeste 0 -- -- 94
2020-06-23 22:00:00 20.9 3 Nordeste 5 Este 0 -- -- 92
2020-06-23 21:00:00 24 0 Calma 5 Oeste 0 -- -- 83
2020-06-23 20:00:00 29.6 3 Sudoeste 12 Sudoeste 0 -- -- 65
2020-06-23 19:00:00 30.9 7 Sur 15 Oeste 0 -- -- 59
2020-06-23 18:00:00 31.8 7 Sudoeste 21 Oeste 0 -- -- 51
2020-06-23 17:00:00 32.1 8 Sudoeste 21 Sur 0 -- -- 47
2020-06-23 16:00:00 31.9 10 Sudoeste 18 Oeste 0 -- -- 50
2020-06-23 15:00:00 31.2 8 Sudoeste 15 Oeste 0 -- -- 54
2020-06-23 14:00:00 29.2 5 Sudoeste 15 Oeste 0 -- -- 57
2020-06-23 13:00:00 26.8 6 Sudoeste 13 Oeste 0 -- -- 60
2020-06-23 12:00:00 24.5 5 Sudoeste 10 Sudoeste 0 -- -- 66
2020-06-23 11:00:00 22.5 3 Sur 8 Oeste 0 -- -- 69
2020-06-23 10:00:00 19.1 2 Sudoeste 6 Nordeste 0 -- -- 80
2020-06-23 09:00:00 13.5 2 Norte 6 Nordeste 0 -- -- 95
2020-06-23 08:00:00 12.7 0 Calma 6 Norte 0 -- -- 98
2020-06-23 07:00:00 13 0 Calma 7 Norte 0 -- -- 97
2020-06-23 06:00:00 13.2 0 Calma 5 Norte 0 -- -- 100
2020-06-23 05:00:00 14 0 Calma 4 Norte 0 -- -- 100
2020-06-23 04:00:00 14.5 0 Calma 4 Nordeste 0 -- -- 100
2020-06-23 03:00:00 14.5 0 Calma 3 Nordeste 0 -- -- 100
2020-06-23 02:00:00 14.7 0 Calma 2 Nordeste 0 -- -- 99
2020-06-23 01:00:00 15.4 0 Calma 3 Nordeste 0 -- -- 99
2020-06-23 00:00:00 16.3 0 Calma 3 Este 0 -- -- 98
2020-06-22 23:00:00 17.3 2 Nordeste 5 Este 0 -- -- 96
2020-06-22 22:00:00 19.2 3 Este 4 Nordeste 0 -- -- 91
2020-06-22 21:00:00 23.2 0 Calma 15 Oeste 0 -- -- 80
2020-06-22 20:00:00 25 6 Oeste 18 Oeste 0 -- -- 74
2020-06-22 19:00:00 25.8 6 Oeste 22 Noroeste 0 -- -- 73
2020-06-22 18:00:00 26.1 8 Oeste 28 Oeste 0 -- -- 74
2020-06-22 17:00:00 26.5 9 Oeste 23 Oeste 0 -- -- 69
2020-06-22 16:00:00 26.9 7 Oeste 24 Noroeste 0 -- -- 70
2020-06-22 15:00:00 26.6 9 Sudoeste 21 Oeste 0 -- -- 70
2020-06-22 14:00:00 26.1 11 Sudoeste 20 Oeste 0 -- -- 72
2020-06-22 13:00:00 25.1 10 Sudoeste 18 Oeste 0 -- -- 73
2020-06-22 12:00:00 22.3 5 Sudoeste 12 Sudoeste 0 -- -- 69
2020-06-22 11:00:00 19.8 3 Sudoeste 6 Sudoeste 0 -- -- 64
2020-06-22 10:00:00 17.2 2 Este 5 Este 0 -- -- 76
2020-06-22 09:00:00 12.3 3 Noroeste 5 Sudeste 0 -- -- 97
2020-06-22 08:00:00 11.8 0 Calma 6 Sudeste 0 -- -- 99
2020-06-22 07:00:00 12.1 2 Nordeste 6 Nordeste 0 -- -- 98
2020-06-22 06:00:00 12.6 0 Calma 5 Este 0 -- -- 99
2020-06-22 05:00:00 13.7 0 Calma 3 Norte 0 -- -- 98
2020-06-22 04:00:00 15.6 0 Calma 2 Norte 0 -- -- 97
2020-06-22 03:00:00 16 0 Calma 0 Calma 0 -- -- 97
2020-06-22 02:00:00 16.1 0 Calma 3 Nordeste 0 -- -- 97
2020-06-22 01:00:00 15.8 0 Calma 4 Nordeste 0 -- -- 98
2020-06-22 00:00:00 15.2 3 Nordeste 4 Noroeste 0 -- -- 95
2020-06-21 23:00:00 16.9 3 Nordeste 5 Sur 0 -- -- 91
2020-06-21 22:00:00 17.9 0 Calma 12 Oeste 0 -- -- 86
2020-06-21 21:00:00 19 4 Noroeste 10 Oeste 0 -- -- 78
2020-06-21 20:00:00 19.3 5 Noroeste 13 Noroeste 0 -- -- 77
2020-06-21 19:00:00 19.7 5 Sur 15 Noroeste 0 -- -- 74
2020-06-21 18:00:00 20.5 7 Noroeste 14 Noroeste 0 -- -- 72
2020-06-21 17:00:00 20.9 2 Norte 19 Noroeste 0 -- -- 73
2020-06-21 16:00:00 21.9 6 Oeste 18 Noroeste 0 -- -- 70
2020-06-21 15:00:00 23.7 10 Oeste 22 Oeste 0 -- -- 63
2020-06-21 14:00:00 24.5 9 Oeste 20 Sudoeste 0 -- -- 63
2020-06-21 13:00:00 23.7 8 Sudoeste 20 Sur 0 -- -- 69
2020-06-21 12:00:00 22 4 Sudoeste 14 Oeste 0 -- -- 74
2020-06-21 11:00:00 19.7 6 Sudoeste 11 Oeste 0 -- -- 79
2020-06-21 10:00:00 17.5 3 Sudoeste 6 Oeste 0 -- -- 88
2020-06-21 09:00:00 15.4 0 Calma 4 Sur 0 -- -- 98
2020-06-21 08:00:00 14.5 0 Calma 2 Norte 0 -- -- 100
2020-06-21 07:00:00 13.9 0 Calma 3 Nordeste 0 -- -- 100
2020-06-21 06:00:00 13.7 0 Calma 2 Nordeste 0 -- -- 100
2020-06-21 05:00:00 12.7 0 Calma 5 Nordeste 0 -- -- 100
2020-06-21 04:00:00 12.4 0 Calma 4 Este 0 -- -- 100
2020-06-21 03:00:00 12.9 0 Calma 3 Oeste 0 -- -- 99
2020-06-21 02:00:00 13.6 0 Calma 4 Nordeste 0 -- -- 97
2020-06-21 01:00:00 15.2 2 Norte 4 Nordeste 0 -- -- 94
2020-06-21 00:00:00 16.3 0 Calma 4 Este 0 -- -- 90
2020-06-20 23:00:00 16.9 0 Calma 5 Oeste 0 -- -- 86
2020-06-20 22:00:00 18.1 0 Calma 5 Oeste 0 -- -- 83
2020-06-20 21:00:00 19.3 0 Calma 7 Oeste 0 -- -- 81
2020-06-20 20:00:00 20.2 0 Calma 8 Sudoeste 0 -- -- 78
2020-06-20 19:00:00 20.1 4 Oeste 11 Sudoeste 0 -- -- 79
2020-06-20 18:00:00 20.8 4 Oeste 13 Sudoeste 0 -- -- 75
2020-06-20 17:00:00 21.4 4 Oeste 18 Noroeste 0 -- -- 72
2020-06-20 16:00:00 21.3 10 Oeste 19 Oeste 0 -- -- 72
2020-06-20 15:00:00 21.9 6 Oeste 37 Oeste 0 -- -- 69
2020-06-20 14:00:00 22.4 8 Noroeste 22 Sudoeste 0 -- -- 70
2020-06-20 13:00:00 21.6 10 Sudoeste 23 Sudoeste 0 -- -- 72
2020-06-20 12:00:00 20.9 6 Sudoeste 17 Sudoeste 0 -- -- 73
2020-06-20 11:00:00 18.3 5 Sudoeste 9 Oeste 0 -- -- 83
2020-06-20 10:00:00 15.8 2 Sur 4 Sur 0 -- -- 91
2020-06-20 09:00:00 11.7 2 Nordeste 4 Sur 0 -- -- 100
2020-06-20 08:00:00 11.1 3 Norte 4 Norte 0 -- -- 100
2020-06-20 07:00:00 10.7 0 Calma 4 Nordeste 0 -- -- 100
2020-06-20 06:00:00 11.2 0 Calma 4 Este 0 -- -- 100
2020-06-20 05:00:00 12 0 Calma 5 Nordeste 0 -- -- 98
2020-06-20 04:00:00 13.5 0 Calma 2 Norte 0 -- -- 98
2020-06-20 03:00:00 14.3 0 Calma -- -- 0 -- -- 98
2020-06-20 02:00:00 14.3 0 Calma -- -- 0 -- -- 97
2020-06-20 01:00:00 14.3 0 Calma 3 Nordeste 0 -- -- 98
2020-06-20 00:00:00 14 0 Calma 4 Oeste 0 -- -- 98
2020-06-19 23:00:00 13.8 3 Noroeste 5 Nordeste 0 -- -- 95
2020-06-19 22:00:00 15.4 2 Este 9 Oeste 0 -- -- 91
2020-06-19 21:00:00 16 0 Calma 9 Noroeste 0 -- -- 88
2020-06-19 20:00:00 17.3 4 Este 18 Oeste 0 -- -- 85
2020-06-19 19:00:00 19.3 9 Sudoeste 21 Sudoeste 0 -- -- 79
2020-06-19 18:00:00 19.1 8 Sudoeste 16 Sudoeste 0 -- -- 81
2020-06-19 17:00:00 18.8 8 Sudoeste 17 Sudoeste 0 -- -- 80
2020-06-19 16:00:00 18.8 4 Oeste 17 Oeste 0 -- -- 77
2020-06-19 15:00:00 18.3 7 Sudoeste 21 Oeste 0 -- -- 80
2020-06-19 14:00:00 18 6 Noroeste 17 Oeste 0 -- -- 76
2020-06-19 13:00:00 17.6 6 Sur 14 Sudoeste 0 -- -- 77
2020-06-19 12:00:00 16.3 4 Sudoeste 9 Sudoeste 0 -- -- 82
2020-06-19 11:00:00 15 3 Sur 5 Sudoeste 0 -- -- 88
2020-06-19 10:00:00 13.8 2 Sur 5 Oeste 0 -- -- 93
2020-06-19 09:00:00 12.8 0 Calma 3 Sur 0 -- -- 97
2020-06-19 08:00:00 12.1 0 Calma 4 Oeste 0 -- -- 98
2020-06-19 07:00:00 11.6 0 Calma 3 Nordeste 0 -- -- 100
2020-06-19 06:00:00 11.2 0 Calma 4 Noroeste 0 -- -- 100
2020-06-19 05:00:00 11.4 2 Norte 5 Norte 0 -- -- 99
2020-06-19 04:00:00 11.9 2 Norte 4 Nordeste 0 -- -- 99
2020-06-19 03:00:00 12.3 0 Calma 2 Este 0 -- -- 98
2020-06-19 02:00:00 12.6 0 Calma 3 Nordeste 0 -- -- 97
2020-06-19 01:00:00 12.7 0 Calma 3 Nordeste 0 -- -- 97
2020-06-19 00:00:00 12.9 2 Norte 6 Norte 0 -- -- 92
2020-06-18 23:00:00 13 3 Norte 4 Norte 0 -- -- 96
2020-06-18 22:00:00 13.2 3 Norte 9 Nordeste 0 -- -- 94
2020-06-18 21:00:00 13.6 2 Nordeste 14 Oeste 0 -- -- 92
2020-06-18 20:00:00 14.6 3 Oeste 12 Oeste 0 -- -- 85
2020-06-18 19:00:00 15.7 4 Noroeste 18 Oeste 0 -- -- 79
2020-06-18 18:00:00 15.9 4 Sudoeste 15 Noroeste 0 -- -- 80
2020-06-18 17:00:00 16.8 8 Oeste 19 Noroeste 0 -- -- 77
2020-06-18 16:00:00 18.6 6 Sudoeste 25 Sudoeste 0 -- -- 72
2020-06-18 15:00:00 19.4 12 Sudoeste 22 Oeste 0 -- -- 70
2020-06-18 14:00:00 17.9 8 Noroeste 23 Oeste 0 -- -- 70
2020-06-18 13:00:00 18.4 5 Sudoeste 17 Oeste 0 -- -- 70
2020-06-18 12:00:00 16.3 6 Noroeste 18 Oeste 0 -- -- 74
2020-06-18 11:00:00 15.5 5 Sudoeste 10 Oeste 0 -- -- 87
2020-06-18 10:00:00 13.5 3 Sudoeste 5 Sudoeste 0 -- -- 95
2020-06-18 09:00:00 12.2 0 Calma 5 Sudeste 0 -- -- 100
2020-06-18 08:00:00 11.5 0 Calma 5 Norte 0 -- -- 100
2020-06-18 07:00:00 11.2 0 Calma 3 Norte 0 -- -- 100
2020-06-18 06:00:00 11.3 0 Calma 5 Sudoeste 0 -- -- 100
2020-06-18 05:00:00 11.3 0 Calma 4 Nordeste 0 -- -- 100
2020-06-18 04:00:00 11.3 2 Noroeste 4 Noroeste 0 -- -- 100
2020-06-18 03:00:00 11.4 0 Calma 2 Nordeste 0 -- -- 100
2020-06-18 02:00:00 11.2 0 Calma 11 Sur 0 -- -- 100
2020-06-18 01:00:00 11.4 4 Sudeste 13 Sur 0.6 -- -- 99
2020-06-18 00:00:00 11.6 4 Nordeste 6 Nordeste 0.8 -- -- 98
2020-06-17 23:00:00 12.4 0 Calma 3 Oeste 0.6 -- -- 98
2020-06-17 22:00:00 12.5 0 Calma 4 Oeste 0.4 -- -- 97
2020-06-17 21:00:00 12.9 0 Calma 8 Sudoeste 1 -- -- 95
2020-06-17 20:00:00 13.6 0 Calma 5 Noroeste 1.2 -- -- 95
2020-06-17 19:00:00 14 5 Noroeste 19 Norte 0.4 -- -- 88
2020-06-17 18:00:00 15.9 5 Sur 21 Noroeste 0 -- -- 84
2020-06-17 17:00:00 18.3 7 Sudoeste 22 Oeste 0 -- -- 75
2020-06-17 16:00:00 19.5 8 Sudoeste 19 Sudoeste 0 -- -- 72
2020-06-17 15:00:00 17.3 5 Sur 9 Sur 0 -- -- 80
2020-06-17 14:00:00 15.1 3 Sur 10 Noroeste 0.4 -- -- 92
2020-06-17 13:00:00 15 3 Sudoeste 6 Sur 0 -- -- 88
2020-06-17 12:00:00 13.8 2 Sudeste 5 Sudeste 0.2 -- -- 92
2020-06-17 11:00:00 13.1 0 Calma 5 Sudoeste 0.4 -- -- 96
2020-06-17 10:00:00 12.4 2 Este 8 Sudoeste 0 -- -- 100
2020-06-17 09:00:00 12 0 Calma 8 Este 0.4 -- -- 100
2020-06-17 08:00:00 11.6 3 Nordeste 7 Oeste 0.4 -- -- 99
2020-06-17 07:00:00 11.5 3 Oeste 9 Sudoeste 0 -- -- 99
2020-06-17 06:00:00 11.5 2 Norte 8 Oeste 0 -- -- 99
2020-06-17 05:00:00 11.6 2 Noroeste 5 Sudoeste 0 -- -- 99
2020-06-17 04:00:00 11.7 2 Oeste 5 Oeste 0 -- -- 99
2020-06-17 03:00:00 11.8 2 Este 6 Oeste 0.2 -- -- 98
2020-06-17 02:00:00 12 2 Oeste 5 Oeste 0 -- -- 98
2020-06-17 01:00:00 12.2 3 Norte 7 Nordeste 0 -- -- 97
2020-06-17 00:00:00 12.2 5 Nordeste 7 Nordeste 0 -- -- 98
2020-06-16 23:00:00 12.5 3 Norte 8 Nordeste 0.2 -- -- 96
2020-06-16 22:00:00 13.1 3 Norte 16 Norte 0 -- -- 93
2020-06-16 21:00:00 13.7 3 Noroeste 11 Noroeste 0 -- -- 94
2020-06-16 20:00:00 14.4 2 Sudoeste 8 Noroeste 0.4 -- -- 94
2020-06-16 19:00:00 14.6 3 Norte 11 Noroeste 1.4 -- -- 87
2020-06-16 18:00:00 16.6 5 Sur 14 Noroeste 0.2 -- -- 89
2020-06-16 17:00:00 16.3 4 Oeste 10 Noroeste 0 -- -- 80
2020-06-16 16:00:00 16.7 4 Sudeste 9 Sudeste 0 -- -- 85
2020-06-16 15:00:00 14.5 4 Nordeste 11 Oeste 0 -- -- 83
2020-06-16 14:00:00 13.7 6 Noroeste 20 Oeste 1.2 -- -- 91
2020-06-16 13:00:00 15.8 5 Oeste 17 Noroeste 0.2 -- -- 92
2020-06-16 12:00:00 15.6 5 Sur 13 Sur 0 -- -- 97
2020-06-16 11:00:00 14.4 3 Sudoeste 8 Oeste 0 -- -- 99
2020-06-16 10:00:00 13.6 4 Sudoeste 8 Oeste 0.6 -- -- 100
2020-06-16 09:00:00 13.1 0 Calma 6 Norte 0.2 -- -- 100
2020-06-16 08:00:00 12.3 3 Noroeste 9 Oeste 0 -- -- 100
2020-06-16 07:00:00 12.2 0 Calma 8 Noroeste 0 -- -- 100
2020-06-16 06:00:00 12.1 0 Calma 6 Noroeste 0 -- -- 100
2020-06-16 05:00:00 12.2 3 Norte 10 Oeste 0 -- -- 100
2020-06-16 04:00:00 12.1 0 Calma 9 Sudoeste 0 -- -- 100
2020-06-16 03:00:00 11.8 3 Norte 5 Nordeste 0.2 -- -- 100
2020-06-16 02:00:00 13.1 0 Calma 7 Sur 1.2 -- -- 99
2020-06-16 01:00:00 13.5 0 Calma 4 Oeste 0 -- -- 99
2020-06-16 00:00:00 13.5 2 Noroeste 3 Noroeste 0 -- -- 99
2020-06-15 23:00:00 13.8 0 Calma 4 Nordeste 0 -- -- 98
2020-06-15 22:00:00 14.1 0 Calma 3 Sudoeste 0 -- -- 98
2020-06-15 21:00:00 14.3 0 Calma 6 Oeste 0 -- -- 98
2020-06-15 20:00:00 14.5 0 Calma 6 Sudoeste 0 -- -- 96
2020-06-15 19:00:00 14.2 2 Noroeste 9 Oeste 0.4 -- -- 97
2020-06-15 18:00:00 14.1 6 Oeste 22 Norte 3.2 -- -- 95
2020-06-15 17:00:00 15.7 8 Noroeste 18 Noroeste 2.6 -- -- 88
2020-06-15 16:00:00 18.4 3 Noroeste 17 Oeste 0 -- -- 76
2020-06-15 15:00:00 20.6 5 Sur 22 Sudoeste 0 -- -- 69
2020-06-15 14:00:00 20.6 11 Sudoeste 24 Oeste 0 -- -- 70
2020-06-15 13:00:00 18.8 8 Sudoeste 19 Oeste 0 -- -- 74
2020-06-15 12:00:00 18.5 6 Sur 17 Sudoeste 0 -- -- 77
2020-06-15 11:00:00 17.4 3 Sudoeste 9 Sudoeste 0 -- -- 75
2020-06-15 10:00:00 14.9 4 Sur 10 Sudeste 0 -- -- 90
2020-06-15 09:00:00 11.7 3 Norte 8 Sudoeste 0 -- -- 100
2020-06-15 08:00:00 11.1 2 Este 4 Nordeste 0 -- -- 100
2020-06-15 07:00:00 11.3 0 Calma 3 Nordeste 0 -- -- 99
2020-06-15 06:00:00 12.6 0 Calma 2 Oeste 0 -- -- 100
2020-06-15 05:00:00 12.8 0 Calma 3 Norte 0 -- -- 100
2020-06-15 04:00:00 12.8 0 Calma 3 Nordeste 0 -- -- 100
2020-06-15 03:00:00 13.2 0 Calma 5 Norte 0 -- -- 99
2020-06-15 02:00:00 13.3 0 Calma 8 Nordeste 0.2 -- -- 100
2020-06-15 01:00:00 13.5 0 Calma 2 Oeste 0 -- -- 98
2020-06-15 00:00:00 13.5 0 Calma 4 Nordeste 0 -- -- 98
2020-06-14 23:00:00 14 0 Calma 3 Sudoeste 0 -- -- 97
2020-06-14 22:00:00 14.3 0 Calma 4 Oeste 0 -- -- 97
2020-06-14 21:00:00 14.4 0 Calma 5 Oeste 0.4 -- -- 96
2020-06-14 20:00:00 14.4 0 Calma 13 Noroeste 1.6 -- -- 96
2020-06-14 19:00:00 15.3 4 Norte 12 Nordeste 0.4 -- -- 85
2020-06-14 18:00:00 15.3 3 Nordeste 11 Noroeste 1 -- -- 92
2020-06-14 17:00:00 16.9 4 Noroeste 12 Noroeste 0 -- -- 75
2020-06-14 16:00:00 18.6 6 Oeste 20 Noroeste 0 -- -- 74
2020-06-14 15:00:00 19.3 5 Sudoeste 18 Oeste 0 -- -- 69
2020-06-14 14:00:00 19.8 6 Sudoeste 21 Sudoeste 0 -- -- 64
2020-06-14 13:00:00 20.3 9 Sudoeste 18 Oeste 0 -- -- 63
2020-06-14 12:00:00 18.5 8 Sudoeste 17 Sur 0 -- -- 76
2020-06-14 11:00:00 15.3 0 Calma 7 Sur 0 -- -- 83
2020-06-14 10:00:00 13.6 4 Sudeste 8 Sudeste 0 -- -- 87
2020-06-14 09:00:00 11.7 0 Calma 11 Sur 0 -- -- 92
2020-06-14 08:00:00 10.4 0 Calma 9 Sudoeste 0 -- -- 98
2020-06-14 07:00:00 9.4 2 Norte 6 Norte 0 -- -- 99
2020-06-14 06:00:00 9.5 0 Calma 5 Norte 0 -- -- 100
2020-06-14 05:00:00 10.1 0 Calma 6 Norte 0 -- -- 99
2020-06-14 04:00:00 12.1 0 Calma 6 Sur 0 -- -- 100
2020-06-14 03:00:00 12.3 0 Calma 2 Sudoeste 0 -- -- 100
2020-06-14 02:00:00 12 0 Calma 4 Oeste 0 -- -- 100
2020-06-14 01:00:00 11.7 0 Calma 3 Sudoeste 0 -- -- 99
2020-06-14 00:00:00 12.1 0 Calma 4 Nordeste 0 -- -- 98
2020-06-13 23:00:00 13.1 2 Nordeste 4 Nordeste 0 -- -- 97
2020-06-13 22:00:00 13.7 3 Este 5 Sudeste 0 -- -- 96
2020-06-13 21:00:00 14.2 3 Norte 14 Noroeste 0.2 -- -- 93
2020-06-13 20:00:00 16 2 Sudoeste 5 Sudoeste 0.4 -- -- 89
2020-06-13 19:00:00 17.4 4 Sur 10 Sur 0 -- -- 79
2020-06-13 18:00:00 16.3 0 Calma 9 Sur 0.4 -- -- 88
2020-06-13 17:00:00 16.7 2 Sudeste 12 Este 0.6 -- -- 84
2020-06-13 16:00:00 17.7 6 Noroeste 16 Noroeste 0 -- -- 70
2020-06-13 15:00:00 18.4 5 Oeste 18 Noroeste 0 -- -- 70
2020-06-13 14:00:00 19.6 4 Oeste 10 Sur 0 -- -- 60
2020-06-13 13:00:00 19.5 6 Sudoeste 17 Sudoeste 0 -- -- 62
2020-06-13 12:00:00 17.1 4 Oeste 12 Sudeste 0 -- -- 69
2020-06-13 11:00:00 14.7 0 Calma 9 Este 0 -- -- 81
2020-06-13 10:00:00 13.1 3 Este 18 Este 0 -- -- 85
2020-06-13 09:00:00 12.4 4 Sudoeste 12 Sudoeste 0 -- -- 86
2020-06-13 08:00:00 12 4 Norte 9 Este 0 -- -- 86
2020-06-13 07:00:00 11.4 5 Este 11 Sudoeste 0 -- -- 91
2020-06-13 06:00:00 11.1 5 Sur 13 Sudeste 0 -- -- 93
2020-06-13 05:00:00 11.4 4 Norte 12 Este 0 -- -- 93
2020-06-13 04:00:00 11.4 5 Norte 11 Sur 0 -- -- 95
2020-06-13 03:00:00 11.5 4 Este 8 Este 0.2 -- -- 96
2020-06-13 02:00:00 11.8 2 Sudoeste 12 Nordeste 0 -- -- 96
2020-06-13 01:00:00 11.8 2 Noroeste 10 Sur 0 -- -- 96
2020-06-13 00:00:00 12.2 3 Nordeste 9 Norte 0.2 -- -- 94
2020-06-12 23:00:00 12 0 Calma 5 Este 0 -- -- 95
2020-06-12 22:00:00 12.5 0 Calma 11 Noroeste 0 -- -- 93
2020-06-12 21:00:00 14.2 5 Norte 18 Oeste 0 -- -- 80
2020-06-12 20:00:00 16.5 4 Noroeste 12 Oeste 0 -- -- 68
2020-06-12 19:00:00 17.2 4 Sudeste 9 Sudoeste 0 -- -- 65
2020-06-12 18:00:00 16.9 4 Oeste 12 Sudoeste 0 -- -- 61
2020-06-12 17:00:00 17.1 4 Sudeste 19 Sur 0 -- -- 55
2020-06-12 16:00:00 14.5 12 Sur 24 Sudeste 0.2 -- -- 80
2020-06-12 15:00:00 10.4 9 Este 36 Sudoeste 2 -- -- 85
2020-06-12 14:00:00 14.8 3 Sudoeste 16 Sudoeste 0.4 -- -- 82
2020-06-12 13:00:00 13.7 6 Oeste 12 Sudoeste 0 -- -- 81
2020-06-12 12:00:00 13.2 4 Este 10 Sudoeste 0 -- -- 77
2020-06-12 11:00:00 13.1 2 Oeste 8 Nordeste 0 -- -- 79
2020-06-12 10:00:00 12.5 2 Nordeste 13 Sur 0 -- -- 77
2020-06-12 09:00:00 11.2 5 Sudeste 23 Sur 0 -- -- 80
2020-06-12 08:00:00 10.3 4 Este 14 Oeste 0 -- -- 85
2020-06-12 07:00:00 11 7 Noroeste 21 Nordeste 0.2 -- -- 73
2020-06-12 06:00:00 10.7 6 Sur 22 Oeste 0 -- -- 84
2020-06-12 05:00:00 11 6 Nordeste 30 Norte 0.4 -- -- 81
2020-06-12 04:00:00 11.6 8 Sudeste 33 Este 0 -- -- 78
2020-06-12 03:00:00 11.7 14 Sudeste 36 Este 0.2 -- -- 74
2020-06-12 02:00:00 12.5 15 Sudeste 48 Sur 0 -- -- 68
2020-06-12 01:00:00 12.4 17 Sudeste 41 Sur 0 -- -- 65
2020-06-12 00:00:00 11.9 13 Sudeste 32 Este 0 -- -- 68
2020-06-11 23:00:00 11.3 14 Este 38 Este 0 -- -- 73
2020-06-11 22:00:00 10.1 10 Sudeste 26 Sudeste 0 -- -- 82
2020-06-11 21:00:00 11.2 7 Sudeste 18 Sudeste 0 -- -- 86
2020-06-11 20:00:00 11 6 Este 15 Sur 0.4 -- -- 93
2020-06-11 19:00:00 10.5 6 Nordeste 13 Norte 0.2 -- -- 91
2020-06-11 18:00:00 11.3 5 Nordeste 12 Nordeste 1.6 -- -- 89
2020-06-11 17:00:00 13.1 2 Norte 9 Nordeste 0 -- -- 86
2020-06-11 16:00:00 13 3 Sudeste 15 Nordeste 0.8 -- -- 89
2020-06-11 15:00:00 12.6 2 Noroeste 11 Sudoeste 0.8 -- -- 88
2020-06-11 14:00:00 12.9 3 Sur 12 Nordeste 0.6 -- -- 91
2020-06-11 13:00:00 11.9 4 Nordeste 18 Nordeste 1.2 -- -- 91
2020-06-11 12:00:00 12.3 5 Nordeste 31 Noroeste 2.8 -- -- 90
2020-06-11 11:00:00 16.3 3 Sudoeste 13 Nordeste 0 -- -- 88
2020-06-11 10:00:00 14.4 4 Nordeste 11 Este 0.4 -- -- 98
2020-06-11 09:00:00 12.9 2 Noroeste 15 Oeste 0 -- -- 96
2020-06-11 08:00:00 12.5 2 Sudeste 5 Este 0 -- -- 98
2020-06-11 07:00:00 12.1 2 Este 5 Oeste 0 -- -- 98
2020-06-11 06:00:00 12 3 Nordeste 5 Norte 0 -- -- 99
2020-06-11 05:00:00 11.9 0 Calma 3 Este 0 -- -- 99
2020-06-11 04:00:00 11.7 0 Calma 3 Nordeste 0 -- -- 100
2020-06-11 03:00:00 11.5 3 Nordeste 4 Nordeste 0 -- -- 99
2020-06-11 02:00:00 11.8 0 Calma 3 Nordeste 0 -- -- 98
2020-06-11 01:00:00 12.2 0 Calma 3 Norte 0 -- -- 97
2020-06-11 00:00:00 12.3 0 Calma 4 Oeste 0 -- -- 96
2020-06-10 23:00:00 12.4 0 Calma 4 Oeste 0 -- -- 96
2020-06-10 22:00:00 12.7 0 Calma 4 Este 0 -- -- 94
2020-06-10 21:00:00 13 0 Calma 10 Noroeste 0 -- -- 93
2020-06-10 20:00:00 14 4 Oeste 9 Noroeste 0 -- -- 83
2020-06-10 19:00:00 14.4 0 Calma 11 Oeste 0 -- -- 83
2020-06-10 18:00:00 14.5 2 Oeste 16 Noroeste 0 -- -- 82
2020-06-10 17:00:00 15.5 5 Sur 15 Oeste 0 -- -- 82
2020-06-10 16:00:00 16.6 5 Oeste 21 Oeste 0 -- -- 76
2020-06-10 15:00:00 17.9 5 Noroeste 18 Oeste 0 -- -- 71
2020-06-10 14:00:00 18.2 8 Sudoeste 20 Oeste 0 -- -- 67
2020-06-10 13:00:00 17.5 9 Sudoeste 19 Oeste 0 -- -- 66
2020-06-10 12:00:00 17.3 8 Sudoeste 19 Sudoeste 0 -- -- 70
2020-06-10 11:00:00 15.2 7 Sudoeste 13 Sudoeste 0 -- -- 73
2020-06-10 10:00:00 12.7 2 Sudoeste 4 Sudoeste 0 -- -- 87
2020-06-10 09:00:00 10.3 2 Nordeste 6 Norte 0 -- -- 94
2020-06-10 08:00:00 9.4 0 Calma 4 Sur 0 -- -- 97
2020-06-10 07:00:00 9.7 0 Calma 4 Oeste 0 -- -- 98
2020-06-10 06:00:00 9.2 2 Nordeste 6 Nordeste 0 -- -- 97
2020-06-10 05:00:00 9.4 3 Oeste 10 Norte 0 -- -- 97
2020-06-10 04:00:00 9.1 0 Calma 4 Sudoeste 0 -- -- 100
2020-06-10 03:00:00 8.4 0 Calma 5 Oeste 0 -- -- 99
2020-06-10 02:00:00 9 0 Calma 4 Nordeste 0 -- -- 98
2020-06-10 01:00:00 9.5 0 Calma 5 Nordeste 0 -- -- 98
2020-06-10 00:00:00 10.6 0 Calma 5 Nordeste 0 -- -- 95
2020-06-09 23:00:00 12.1 2 Nordeste 6 Este 0 -- -- 91
2020-06-09 22:00:00 13.1 3 Noroeste 9 Noroeste 0 -- -- 80
2020-06-09 21:00:00 13.7 0 Calma 9 Nordeste 0 -- -- 79
2020-06-09 20:00:00 14.5 3 Sudoeste 17 Oeste 0 -- -- 76
2020-06-09 19:00:00 15.4 5 Oeste 18 Sudoeste 0 -- -- 75
2020-06-09 18:00:00 16.8 5 Oeste 14 Noroeste 0 -- -- 70
2020-06-09 17:00:00 16.5 4 Sudoeste 9 Sudoeste 0 -- -- 72
2020-06-09 16:00:00 14.8 4 Este 12 Oeste 0 -- -- 77
2020-06-09 15:00:00 14.9 7 Noroeste 23 Noroeste 0 -- -- 74
2020-06-09 14:00:00 16.9 5 Norte 14 Sudoeste 0 -- -- 60
2020-06-09 13:00:00 16.4 4 Sur 10 Sudoeste 0 -- -- 68
2020-06-09 12:00:00 15 5 Sur 13 Oeste 0 -- -- 81
2020-06-09 11:00:00 14.8 6 Sudoeste 14 Sudoeste 0 -- -- 79
2020-06-09 10:00:00 13.1 3 Sur 6 Oeste 0 -- -- 92
2020-06-09 09:00:00 11.2 3 Nordeste 8 Nordeste 0 -- -- 96
2020-06-09 08:00:00 10.5 0 Calma 3 Nordeste 0 -- -- 100
2020-06-09 07:00:00 10.1 0 Calma 4 Nordeste 0 -- -- 100
2020-06-09 06:00:00 10 3 Nordeste 8 Oeste 0 -- -- 99
2020-06-09 05:00:00 10.1 0 Calma 3 Nordeste 0 -- -- 99
2020-06-09 04:00:00 10.5 0 Calma 4 Nordeste 0 -- -- 99
2020-06-09 03:00:00 10.6 0 Calma 3 Nordeste 0 -- -- 99
2020-06-09 02:00:00 10.6 0 Calma 3 Sudoeste 0 -- -- 100
2020-06-09 01:00:00 10.6 2 Norte 5 Nordeste 0 -- -- 98
2020-06-09 00:00:00 11.2 3 Norte 5 Norte 0.2 -- -- 96
2020-06-08 23:00:00 11.6 0 Calma 4 Norte 0 -- -- 96
2020-06-08 22:00:00 11.9 2 Norte 7 Oeste 0 -- -- 94
2020-06-08 21:00:00 13 0 Calma 4 Oeste 0 -- -- 93
2020-06-08 20:00:00 13 0 Calma 4 Sur 0 -- -- 90
2020-06-08 19:00:00 12.8 0 Calma 14 Oeste 0.6 -- -- 91
2020-06-08 18:00:00 13.4 6 Oeste 19 Oeste 0 -- -- 90
2020-06-08 17:00:00 13.8 5 Sudoeste 15 Oeste 0 -- -- 86
2020-06-08 16:00:00 14 5 Oeste 13 Oeste 0.2 -- -- 88
2020-06-08 15:00:00 14.8 5 Sur 9 Sudoeste 0.4 -- -- 91
2020-06-08 14:00:00 13.8 3 Nordeste 6 Sur 0 -- -- 80
2020-06-08 13:00:00 13.6 4 Sudoeste 7 Sur 0 -- -- 95
2020-06-08 12:00:00 11.4 0 Calma 8 Oeste 1.2 -- -- 99
2020-06-08 11:00:00 11.3 2 Sudoeste 5 Sudoeste 0.2 -- -- 97
2020-06-08 10:00:00 10.4 0 Calma 5 Sudeste 0 -- -- 98
2020-06-08 09:00:00 10.1 0 Calma 5 Noroeste 0.6 -- -- 99
2020-06-08 08:00:00 9.7 0 Calma 3 Este 0 -- -- 99
2020-06-08 07:00:00 9.2 0 Calma 6 Oeste 0 -- -- 99
2020-06-08 06:00:00 8.7 2 Sur 5 Noroeste 0 -- -- 100
2020-06-08 05:00:00 8.8 0 Calma 4 Norte 0 -- -- 97
2020-06-08 04:00:00 9.5 0 Calma 4 Norte 0 -- -- 99
2020-06-08 03:00:00 9.6 0 Calma 5 Oeste 0 -- -- 98
2020-06-08 02:00:00 9.6 0 Calma 3 Norte 0 -- -- 98
2020-06-08 01:00:00 9.4 2 Este 5 Nordeste 0 -- -- 100
2020-06-08 00:00:00 8.4 2 Norte 4 Norte 0 -- -- 98
2020-06-07 23:00:00 9.4 0 Calma 4 Nordeste 0 -- -- 98
2020-06-07 22:00:00 10 3 Nordeste 4 Norte 0 -- -- 94
2020-06-07 21:00:00 11.5 0 Calma 5 Nordeste 0 -- -- 92
2020-06-07 20:00:00 11.5 0 Calma 9 Oeste 0.2 -- -- 88
2020-06-07 19:00:00 12 5 Oeste 13 Noroeste 0 -- -- 85
2020-06-07 18:00:00 13.4 5 Oeste 19 Sudoeste 0 -- -- 78
2020-06-07 17:00:00 14.9 9 Sudoeste 17 Sudoeste 0 -- -- 74
2020-06-07 16:00:00 14.4 7 Sudoeste 14 Sudoeste 0 -- -- 74
2020-06-07 15:00:00 14 6 Sudoeste 13 Oeste 0 -- -- 76
2020-06-07 14:00:00 12.9 2 Oeste 10 Sudoeste 0 -- -- 78
2020-06-07 13:00:00 11.3 4 Sur 17 Oeste 0 -- -- 94
2020-06-07 12:00:00 11 3 Sudoeste 9 Sudoeste 0 -- -- 95
2020-06-07 11:00:00 10.4 4 Sudoeste 10 Oeste 0 -- -- 96
2020-06-07 10:00:00 9.8 0 Calma 11 Oeste 0 -- -- 97
2020-06-07 09:00:00 9.3 3 Oeste 15 Oeste 0.6 -- -- 99
2020-06-07 08:00:00 9.4 2 Sudoeste 6 Sudoeste 0 -- -- 100
2020-06-07 07:00:00 9.1 0 Calma 6 Noroeste 0 -- -- 100
2020-06-07 06:00:00 9.1 3 Nordeste 8 Noroeste 0 -- -- 100
2020-06-07 05:00:00 9.1 0 Calma 12 Oeste 0.4 -- -- 100
2020-06-07 04:00:00 9.5 4 Oeste 12 Oeste 0.6 -- -- 100
2020-06-07 03:00:00 9.8 3 Oeste 11 Oeste 0.6 -- -- 100
2020-06-07 02:00:00 10.3 4 Sudoeste 13 Oeste 0.8 -- -- 100
2020-06-07 01:00:00 10.9 5 Oeste 15 Noroeste 1.2 -- -- 99
2020-06-07 00:00:00 11.4 4 Sudoeste 10 Sudoeste 0.6 -- -- 100